Time;durP1;ratioP1;P1;durP2;ratioP2;P2;SDS_P1;SDS_P2;PMS_P1;PMS_P2;Temp;Humidity;BMP_temperature;BMP_pressure;BME280_temperature;BME280_humidity;BME280_pressure;Samples;Min_cycle;Max_cycle;Signal;HPM_P1;HPM_P2
2021/04/08 00:02:16;;;;;;;35.72;33.75;;;;;;;;;;5028453;28;20508;-57
2021/04/08 00:04:42;;;;;;;39.25;37.75;;;;;;;;;;5027476;28;20429;-57
2021/04/08 00:07:09;;;;;;;37.08;35.28;;;;;;;;;;5032391;28;20107;-57
2021/04/08 00:09:35;;;;;;;37.53;35.92;;;;;;;;;;5027668;28;20033;-57
2021/04/08 00:12:02;;;;;;;38.30;36.65;;;;;;;;;;5030741;28;20045;-57
2021/04/08 00:14:29;;;;;;;39.35;37.17;;;;;;;;;;5029698;28;20038;-57
2021/04/08 00:16:55;;;;;;;34.28;32.67;;;;;;;;;;5026711;28;20042;-56
2021/04/08 00:19:22;;;;;;;35.72;34.22;;;;;;;;;;5032071;28;20060;-57
2021/04/08 00:21:48;;;;;;;36.35;34.85;;;;;;;;;;5027856;28;20045;-57
2021/04/08 00:24:15;;;;;;;38.50;36.30;;;;;;;;;;5029102;28;20041;-56
2021/04/08 00:26:41;;;;;;;34.35;32.97;;;;;;;;;;5030987;28;20644;-57
2021/04/08 00:29:08;;;;;;;39.75;37.40;;;;;;;;;;5027031;28;20045;-56
2021/04/08 00:31:34;;;;;;;39.50;37.53;;;;;;;;;;5028948;28;20046;-56
2021/04/08 00:34:07;;;;;;;38.45;36.85;;;;;;;;;;5029856;28;20429;-57
2021/04/08 00:36:34;;;;;;;39.92;38.28;;;;;;;;;;5029163;28;20044;-57
2021/04/08 00:39:00;;;;;;;39.22;37.50;;;;;;;;;;5029755;28;20458;-56
2021/04/08 00:41:27;;;;;;;39.10;37.35;;;;;;;;;;5025780;28;20033;-56
2021/04/08 00:43:54;;;;;;;40.83;38.30;;;;;;;;;;5022561;28;20042;-56
2021/04/08 00:46:21;;;;;;;37.10;35.50;;;;;;;;;;5029232;28;20038;-55
2021/04/08 00:48:47;;;;;;;37.58;35.97;;;;;;;;;;5028295;28;20046;-57
2021/04/08 00:51:13;;;;;;;40.63;38.50;;;;;;;;;;5032185;28;20049;-57
2021/04/08 00:53:40;;;;;;;37.10;35.50;;;;;;;;;;5023779;28;20041;-56
2021/04/08 00:56:07;;;;;;;41.30;39.33;;;;;;;;;;5031807;28;20032;-57
2021/04/08 00:58:34;;;;;;;38.42;36.60;;;;;;;;;;5028037;28;20049;-57
2021/04/08 01:01:00;;;;;;;40.90;39.25;;;;;;;;;;5025403;28;20055;-56
2021/04/08 01:03:27;;;;;;;38.58;37.05;;;;;;;;;;5033772;28;20040;-57
2021/04/08 01:05:53;;;;;;;39.70;38.00;;;;;;;;;;5026302;28;20057;-57
2021/04/08 01:08:20;;;;;;;35.30;34.00;;;;;;;;;;5024526;28;20045;-57
2021/04/08 01:10:46;;;;;;;41.85;40.30;;;;;;;;;;5025714;28;20393;-55
2021/04/08 01:13:15;;;;;;;40.20;38.33;;;;;;;;;;5022313;28;20033;-56
2021/04/08 01:15:41;;;;;;;38.40;36.63;;;;;;;;;;5032571;28;20402;-56
2021/04/08 01:18:26;;;;;;;38.47;36.35;;;;;;;;;;5025351;28;20042;-56
2021/04/08 01:21:01;;;;;;;38.05;35.88;;;;;;;;;;5021799;28;20061;-56
2021/04/08 01:23:27;;;;;;;40.88;38.92;;;;;;;;;;5025695;28;20103;-56
2021/04/08 01:26:12;;;;;;;42.00;39.75;;;;;;;;;;5025737;28;20038;-57
2021/04/08 01:28:38;;;;;;;41.55;39.65;;;;;;;;;;5017484;28;20050;-55
2021/04/08 01:31:05;;;;;;;37.53;35.35;;;;;;;;;;5029271;28;20033;-57
2021/04/08 01:33:34;;;;;;;41.88;39.35;;;;;;;;;;5025532;28;20033;-56
2021/04/08 01:36:06;;;;;;;41.58;39.40;;;;;;;;;;5031018;28;20042;-57
2021/04/08 01:38:42;;;;;;;39.58;37.92;;;;;;;;;;5028052;28;20461;-56
2021/04/08 01:41:09;;;;;;;37.65;36.08;;;;;;;;;;5026051;28;20037;-55
2021/04/08 01:43:37;;;;;;;37.72;36.15;;;;;;;;;;5031467;28;20132;-56
2021/04/08 01:46:05;;;;;;;40.75;38.88;;;;;;;;;;5024158;28;20115;-57
2021/04/08 01:48:31;;;;;;;38.60;36.97;;;;;;;;;;5029259;28;20030;-57
2021/04/08 01:50:59;;;;;;;37.15;35.53;;;;;;;;;;5026696;28;20041;-54
2021/04/08 01:53:26;;;;;;;40.08;38.45;;;;;;;;;;5028181;28;20030;-57
2021/04/08 01:55:54;;;;;;;38.65;37.05;;;;;;;;;;5031771;28;20103;-57
2021/04/08 01:58:22;;;;;;;38.25;36.65;;;;;;;;;;5021396;28;20041;-52
2021/04/08 02:00:48;;;;;;;39.72;37.92;;;;;;;;;;5017998;28;20478;-56
2021/04/08 02:03:15;;;;;;;38.80;37.05;;;;;;;;;;5028430;28;20038;-57
2021/04/08 02:05:41;;;;;;;41.75;39.95;;;;;;;;;;5026420;28;20045;-57
2021/04/08 02:08:08;;;;;;;41.05;39.15;;;;;;;;;;5029689;28;20045;-56
2021/04/08 02:10:35;;;;;;;39.67;37.97;;;;;;;;;;5024593;28;20034;-57
2021/04/08 02:13:02;;;;;;;40.08;38.25;;;;;;;;;;5027305;28;20033;-57
2021/04/08 02:15:29;;;;;;;39.95;38.30;;;;;;;;;;5029402;28;20052;-57
2021/04/08 02:17:57;;;;;;;38.83;37.28;;;;;;;;;;5022283;28;20515;-57
2021/04/08 02:20:26;;;;;;;42.13;40.30;;;;;;;;;;5026897;28;20072;-56
2021/04/08 02:22:53;;;;;;;41.17;39.38;;;;;;;;;;5020471;28;20046;-57
2021/04/08 02:25:21;;;;;;;37.30;35.65;;;;;;;;;;5028049;28;20486;-57
2021/04/08 02:27:48;;;;;;;41.50;39.42;;;;;;;;;;5027895;28;20489;-58
2021/04/08 02:30:16;;;;;;;39.47;37.67;;;;;;;;;;5025042;28;20083;-57
2021/04/08 02:32:43;;;;;;;40.03;38.08;;;;;;;;;;5029509;28;20776;-57
2021/04/08 02:35:13;;;;;;;42.50;40.47;;;;;;;;;;5040923;28;20048;-57
2021/04/08 02:37:40;;;;;;;40.03;38.25;;;;;;;;;;5022903;28;20504;-56
2021/04/08 02:40:07;;;;;;;37.78;36.35;;;;;;;;;;5031252;28;20033;-57
2021/04/08 02:42:34;;;;;;;40.22;38.55;;;;;;;;;;5020498;28;20046;-55
2021/04/08 02:45:00;;;;;;;41.22;39.38;;;;;;;;;;5017012;28;20041;-50
2021/04/08 02:47:27;;;;;;;40.55;38.85;;;;;;;;;;5018350;28;20049;-56
2021/04/08 02:49:53;;;;;;;40.88;39.28;;;;;;;;;;5018460;28;20466;-57
2021/04/08 02:52:20;;;;;;;40.80;39.03;;;;;;;;;;5030651;28;20088;-57
2021/04/08 02:55:06;;;;;;;42.53;40.72;;;;;;;;;;5023852;28;20041;-57
2021/04/08 02:57:37;;;;;;;41.38;39.53;;;;;;;;;;5025537;28;20052;-57
2021/04/08 03:00:05;;;;;;;39.47;37.95;;;;;;;;;;5028437;28;20493;-57
2021/04/08 03:02:34;;;;;;;39.38;37.70;;;;;;;;;;5022961;28;20128;-57
2021/04/08 03:05:00;;;;;;;39.22;37.28;;;;;;;;;;5029606;28;20107;-54
2021/04/08 03:07:45;;;;;;;44.30;42.45;;;;;;;;;;5023426;28;20112;-55
2021/04/08 03:10:13;;;;;;;41.92;40.25;;;;;;;;;;5025577;28;20129;-57
2021/04/08 03:12:44;;;;;;;38.65;37.03;;;;;;;;;;5030528;28;20065;-56
2021/04/08 03:15:11;;;;;;;47.95;45.45;;;;;;;;;;5024286;28;20038;-57
2021/04/08 03:17:38;;;;;;;47.33;44.65;;;;;;;;;;5043618;28;20077;-50
2021/04/08 03:20:07;;;;;;;46.83;44.13;;;;;;;;;;5027640;28;20057;-54
2021/04/08 03:22:35;;;;;;;43.92;42.13;;;;;;;;;;5022188;28;20072;-57
2021/04/08 03:25:02;;;;;;;41.85;40.13;;;;;;;;;;5022590;28;20049;-57
2021/04/08 03:27:29;;;;;;;42.55;40.70;;;;;;;;;;5022904;28;20491;-57
2021/04/08 03:29:56;;;;;;;43.13;41.28;;;;;;;;;;5022641;28;20045;-57
2021/04/08 03:32:22;;;;;;;44.03;42.13;;;;;;;;;;5029733;28;20050;-56
2021/04/08 03:34:49;;;;;;;43.13;41.33;;;;;;;;;;5023294;28;20056;-57
2021/04/08 03:37:17;;;;;;;42.60;40.90;;;;;;;;;;5029589;28;20529;-56
2021/04/08 03:39:44;;;;;;;40.58;38.85;;;;;;;;;;5019621;28;20414;-57
2021/04/08 03:42:13;;;;;;;36.97;35.53;;;;;;;;;;5028484;28;20037;-56
2021/04/08 03:44:40;;;;;;;38.15;36.88;;;;;;;;;;5018843;28;20042;-57
2021/04/08 03:47:07;;;;;;;40.50;38.92;;;;;;;;;;5025750;28;20041;-57
2021/04/08 03:49:33;;;;;;;42.60;40.70;;;;;;;;;;5023874;28;20104;-56
2021/04/08 03:52:01;;;;;;;43.83;42.10;;;;;;;;;;5027877;28;20084;-56
2021/04/08 03:54:28;;;;;;;43.17;41.47;;;;;;;;;;5027408;28;20038;-56
2021/04/08 03:56:55;;;;;;;40.47;39.00;;;;;;;;;;5028511;28;20053;-54
2021/04/08 03:59:24;;;;;;;45.08;43.13;;;;;;;;;;5024259;28;20522;-55
2021/04/08 04:01:50;;;;;;;42.00;40.50;;;;;;;;;;5029817;28;20489;-57
2021/04/08 04:04:17;;;;;;;39.63;38.28;;;;;;;;;;5031809;28;20083;-56
2021/04/08 04:06:48;;;;;;;37.88;36.30;;;;;;;;;;5027252;28;20118;-57
2021/04/08 04:09:14;;;;;;;40.13;38.63;;;;;;;;;;5023369;28;20040;-56
2021/04/08 04:11:45;;;;;;;44.08;42.05;;;;;;;;;;5027662;28;20041;-56
2021/04/08 04:14:13;;;;;;;43.42;41.22;;;;;;;;;;5025022;28;20128;-57
2021/04/08 04:16:44;;;;;;;39.45;38.03;;;;;;;;;;5032419;28;20033;-56
2021/04/08 04:19:11;;;;;;;37.97;36.78;;;;;;;;;;5026688;28;20051;-57
2021/04/08 04:21:38;;;;;;;38.30;36.70;;;;;;;;;;5030341;28;20153;-57
2021/04/08 04:24:05;;;;;;;39.78;38.08;;;;;;;;;;5030768;28;20049;-57
2021/04/08 04:26:31;;;;;;;39.38;37.45;;;;;;;;;;5026876;28;20049;-54
2021/04/08 04:28:58;;;;;;;41.25;39.58;;;;;;;;;;5032065;28;20041;-58
2021/04/08 04:31:25;;;;;;;40.60;39.03;;;;;;;;;;5023387;28;20040;-55
2021/04/08 04:33:51;;;;;;;41.08;39.50;;;;;;;;;;5023769;28;20030;-56
2021/04/08 04:36:18;;;;;;;37.75;36.30;;;;;;;;;;5026425;28;20040;-57
2021/04/08 04:38:45;;;;;;;44.65;42.70;;;;;;;;;;5021457;28;20544;-52
2021/04/08 04:41:11;;;;;;;40.28;38.63;;;;;;;;;;5027493;28;20047;-54
2021/04/08 04:43:37;;;;;;;41.28;39.38;;;;;;;;;;5026266;28;20417;-57
2021/04/08 04:46:04;;;;;;;42.25;40.35;;;;;;;;;;5031468;28;20069;-57
2021/04/08 04:48:31;;;;;;;43.53;41.10;;;;;;;;;;5023880;28;20065;-57
2021/04/08 04:50:57;;;;;;;44.55;42.65;;;;;;;;;;5026938;28;20494;-57
2021/04/08 04:53:23;;;;;;;38.35;37.00;;;;;;;;;;5030034;28;20095;-53
2021/04/08 04:55:49;;;;;;;38.10;36.67;;;;;;;;;;5025648;28;20033;-56
2021/04/08 04:58:16;;;;;;;43.17;41.13;;;;;;;;;;5029556;28;20527;-56
2021/04/08 05:00:42;;;;;;;41.08;39.33;;;;;;;;;;5029266;28;20406;-57
2021/04/08 05:03:08;;;;;;;39.90;38.25;;;;;;;;;;5027494;28;20064;-55
2021/04/08 05:05:34;;;;;;;40.38;38.97;;;;;;;;;;5033596;28;20477;-56
2021/04/08 05:08:01;;;;;;;44.88;42.85;;;;;;;;;;5025519;28;20037;-56
2021/04/08 05:10:27;;;;;;;41.42;39.75;;;;;;;;;;5023848;28;20048;-55
2021/04/08 05:12:54;;;;;;;42.47;40.25;;;;;;;;;;5029033;28;20038;-57
2021/04/08 05:15:20;;;;;;;37.92;36.33;;;;;;;;;;5028191;28;20056;-56
2021/04/08 05:17:56;;;;;;;40.67;38.47;;;;;;;;;;5032575;28;20104;-57
2021/04/08 05:20:22;;;;;;;41.55;39.72;;;;;;;;;;5028994;28;20053;-56
2021/04/08 05:22:48;;;;;;;40.30;38.78;;;;;;;;;;5026503;28;20042;-56
2021/04/08 05:25:14;;;;;;;43.08;41.15;;;;;;;;;;5025217;28;20053;-55
2021/04/08 05:27:41;;;;;;;41.95;39.85;;;;;;;;;;5026903;28;20536;-54
2021/04/08 05:30:07;;;;;;;41.00;39.20;;;;;;;;;;5031827;28;20068;-53
2021/04/08 05:32:33;;;;;;;41.67;40.03;;;;;;;;;;5027163;28;20457;-54
2021/04/08 05:35:00;;;;;;;38.83;36.97;;;;;;;;;;5027766;28;20116;-54
2021/04/08 05:37:26;;;;;;;39.50;37.88;;;;;;;;;;5046031;28;20041;-55
2021/04/08 05:39:53;;;;;;;37.75;36.30;;;;;;;;;;5027481;28;20037;-55
2021/04/08 05:42:19;;;;;;;38.70;37.50;;;;;;;;;;5031724;28;20042;-54
2021/04/08 05:44:45;;;;;;;40.15;38.65;;;;;;;;;;5027302;28;20045;-54
2021/04/08 05:47:12;;;;;;;41.83;39.35;;;;;;;;;;5024951;28;20494;-55
2021/04/08 05:49:38;;;;;;;40.80;39.15;;;;;;;;;;5031823;28;20049;-55
2021/04/08 05:52:05;;;;;;;40.22;39.00;;;;;;;;;;5021915;28;20038;-51
2021/04/08 05:54:31;;;;;;;37.67;36.03;;;;;;;;;;5019184;28;20042;-53
2021/04/08 05:56:58;;;;;;;32.50;31.58;;;;;;;;;;5042300;28;20049;-54
2021/04/08 05:59:24;;;;;;;37.10;35.85;;;;;;;;;;5024458;28;20056;-54
2021/04/08 06:01:50;;;;;;;42.58;40.78;;;;;;;;;;5031319;28;20045;-55
2021/04/08 06:04:17;;;;;;;44.90;42.42;;;;;;;;;;5027451;28;20041;-54
2021/04/08 06:06:43;;;;;;;40.03;38.10;;;;;;;;;;5029326;28;20064;-55
2021/04/08 06:09:10;;;;;;;39.30;37.70;;;;;;;;;;5029086;28;20378;-54
2021/04/08 06:11:36;;;;;;;42.20;39.80;;;;;;;;;;5026233;28;20033;-53
2021/04/08 06:14:03;;;;;;;39.33;37.72;;;;;;;;;;5031469;28;20100;-54
2021/04/08 06:16:29;;;;;;;44.63;42.28;;;;;;;;;;5028691;28;20045;-55
2021/04/08 06:18:56;;;;;;;40.03;38.13;;;;;;;;;;5028514;28;20056;-54
2021/04/08 06:21:22;;;;;;;40.20;38.20;;;;;;;;;;5028530;28;20123;-53
2021/04/08 06:23:51;;;;;;;42.53;40.70;;;;;;;;;;5024949;28;20049;-54
2021/04/08 06:26:17;;;;;;;41.45;39.45;;;;;;;;;;5031802;28;20116;-55
2021/04/08 06:28:44;;;;;;;36.30;35.00;;;;;;;;;;5024646;28;20056;-55
2021/04/08 06:31:10;;;;;;;39.63;37.92;;;;;;;;;;5028267;28;20029;-55
2021/04/08 06:33:36;;;;;;;38.83;37.03;;;;;;;;;;5029172;28;20037;-55
2021/04/08 06:36:05;;;;;;;39.50;37.97;;;;;;;;;;5024744;28;20557;-54
2021/04/08 06:38:31;;;;;;;35.08;33.75;;;;;;;;;;5032143;28;20409;-55
2021/04/08 06:40:59;;;;;;;42.55;40.55;;;;;;;;;;5025043;28;20053;-54
2021/04/08 06:43:26;;;;;;;37.55;35.95;;;;;;;;;;5028963;28;20493;-54
2021/04/08 06:45:53;;;;;;;38.80;37.25;;;;;;;;;;5029837;28;20045;-55
2021/04/08 06:48:23;;;;;;;39.08;36.92;;;;;;;;;;5025014;28;20029;-54
2021/04/08 06:50:51;;;;;;;42.53;40.40;;;;;;;;;;5031842;28;20040;-55
2021/04/08 06:53:18;;;;;;;35.83;33.83;;;;;;;;;;5027159;28;20069;-55
2021/04/08 06:55:46;;;;;;;39.53;37.55;;;;;;;;;;5027140;28;20033;-56
2021/04/08 06:58:14;;;;;;;37.35;35.47;;;;;;;;;;5029188;28;20049;-56
2021/04/08 07:01:00;;;;;;;38.58;37.17;;;;;;;;;;5023746;28;20037;-56
2021/04/08 07:03:27;;;;;;;35.97;34.05;;;;;;;;;;5029677;28;20046;-56
2021/04/08 07:05:53;;;;;;;36.00;34.65;;;;;;;;;;5028167;28;20379;-56
2021/04/08 07:08:19;;;;;;;32.97;31.75;;;;;;;;;;5023581;28;20041;-57
2021/04/08 07:10:45;;;;;;;33.80;32.70;;;;;;;;;;5030493;28;20401;-57
2021/04/08 07:13:11;;;;;;;33.20;31.90;;;;;;;;;;5026225;28;20080;-56
2021/04/08 07:15:38;;;;;;;36.08;34.67;;;;;;;;;;5029348;28;20044;-57
2021/04/08 07:18:05;;;;;;;33.58;32.25;;;;;;;;;;5032274;28;20041;-56
2021/04/08 07:20:31;;;;;;;34.70;33.45;;;;;;;;;;5028353;28;20052;-56
2021/04/08 07:23:10;;;;;;;34.08;32.83;;;;;;;;;;5035037;28;20096;-56
2021/04/08 07:25:36;;;;;;;35.70;34.33;;;;;;;;;;5031962;28;20069;-56
2021/04/08 07:28:23;;;;;;;31.25;29.85;;;;;;;;;;5029104;28;20084;-55
2021/04/08 07:30:49;;;;;;;32.78;31.50;;;;;;;;;;5015865;28;20112;-56
2021/04/08 07:33:16;;;;;;;33.38;31.70;;;;;;;;;;5020633;28;20030;-56
2021/04/08 07:35:42;;;;;;;33.53;31.90;;;;;;;;;;5021602;28;20046;-54
2021/04/08 07:38:09;;;;;;;29.95;29.10;;;;;;;;;;5031857;28;20045;-56
2021/04/08 07:40:36;;;;;;;30.05;29.15;;;;;;;;;;5027597;28;20080;-56
2021/04/08 07:43:14;;;;;;;29.38;28.40;;;;;;;;;;5035317;28;20053;-56
2021/04/08 07:45:40;;;;;;;32.22;31.10;;;;;;;;;;5029610;28;20054;-56
2021/04/08 07:48:07;;;;;;;30.42;29.02;;;;;;;;;;5030947;28;20033;-55
2021/04/08 07:50:36;;;;;;;33.70;31.73;;;;;;;;;;5033227;28;20046;-56
2021/04/08 07:53:04;;;;;;;30.38;28.98;;;;;;;;;;5023545;28;20034;-56
2021/04/08 07:55:30;;;;;;;41.35;38.88;;;;;;;;;;5018652;28;20049;-56
2021/04/08 07:58:03;;;;;;;34.25;32.10;;;;;;;;;;5030977;28;20111;-54
2021/04/08 08:00:31;;;;;;;30.30;29.20;;;;;;;;;;5023026;28;20037;-56
2021/04/08 08:02:59;;;;;;;29.17;28.17;;;;;;;;;;5033932;28;20041;-56
2021/04/08 08:05:27;;;;;;;26.52;25.83;;;;;;;;;;5021987;28;20120;-54
2021/04/08 08:07:56;;;;;;;22.73;22.17;;;;;;;;;;5020826;28;20042;-56
2021/04/08 08:10:25;;;;;;;21.98;21.58;;;;;;;;;;5031718;28;20516;-56
2021/04/08 08:12:52;;;;;;;23.85;23.20;;;;;;;;;;5026694;28;20037;-55
2021/04/08 08:15:23;;;;;;;22.98;21.88;;;;;;;;;;5034195;28;20403;-56
2021/04/08 08:17:50;;;;;;;23.10;22.25;;;;;;;;;;5027292;28;20045;-56
2021/04/08 08:20:18;;;;;;;18.63;18.33;;;;;;;;;;5030172;28;20481;-56
2021/04/08 08:22:44;;;;;;;21.52;20.88;;;;;;;;;;5016029;28;20049;-56
2021/04/08 08:25:11;;;;;;;21.30;20.83;;;;;;;;;;5025232;28;20051;-56
2021/04/08 08:27:48;;;;;;;24.27;23.45;;;;;;;;;;5031017;28;20099;-56
2021/04/08 08:30:16;;;;;;;24.88;23.73;;;;;;;;;;5022095;28;20037;-56
2021/04/08 08:33:02;;;;;;;23.73;23.17;;;;;;;;;;5025786;28;20041;-56
2021/04/08 08:35:29;;;;;;;20.65;20.25;;;;;;;;;;5017229;28;20118;-55
2021/04/08 08:37:56;;;;;;;21.23;20.80;;;;;;;;;;5027506;28;20063;-56
2021/04/08 08:40:22;;;;;;;21.08;20.70;;;;;;;;;;5030944;28;20041;-56
2021/04/08 08:42:50;;;;;;;22.13;21.55;;;;;;;;;;5031099;28;20060;-55
2021/04/08 08:45:18;;;;;;;20.65;20.35;;;;;;;;;;5027787;28;20034;-55
2021/04/08 08:47:45;;;;;;;19.42;19.02;;;;;;;;;;5031539;28;20052;-56
2021/04/08 08:50:12;;;;;;;21.33;20.85;;;;;;;;;;5026307;28;20041;-56
2021/04/08 08:52:40;;;;;;;22.83;22.42;;;;;;;;;;5029809;28;20034;-56
2021/04/08 08:55:09;;;;;;;24.05;23.27;;;;;;;;;;5033014;28;20061;-56
2021/04/08 08:57:36;;;;;;;21.85;21.00;;;;;;;;;;5026311;28;20033;-56
2021/04/08 09:00:03;;;;;;;21.52;20.80;;;;;;;;;;5031398;28;20030;-57
2021/04/08 09:02:29;;;;;;;21.48;20.98;;;;;;;;;;5024172;28;20556;-56
2021/04/08 09:04:57;;;;;;;20.92;20.52;;;;;;;;;;5027908;28;20034;-56
2021/04/08 09:07:25;;;;;;;20.38;19.95;;;;;;;;;;5032222;28;20402;-56
2021/04/08 09:09:56;;;;;;;18.77;18.58;;;;;;;;;;5028152;28;20073;-57
2021/04/08 09:12:24;;;;;;;17.52;17.10;;;;;;;;;;5029625;28;20051;-56
2021/04/08 09:14:50;;;;;;;17.95;17.58;;;;;;;;;;5020140;28;20038;-57
2021/04/08 09:17:34;;;;;;;17.98;17.48;;;;;;;;;;5026253;28;20043;-56
2021/04/08 09:20:08;;;;;;;15.55;15.30;;;;;;;;;;5030446;28;20107;-57
2021/04/08 09:22:34;;;;;;;15.20;14.90;;;;;;;;;;5026974;28;20061;-56
2021/04/08 09:25:01;;;;;;;14.75;14.57;;;;;;;;;;5028469;28;20045;-56
2021/04/08 09:27:28;;;;;;;10.35;10.25;;;;;;;;;;5016637;28;20041;-56
2021/04/08 09:29:58;;;;;;;16.73;16.10;;;;;;;;;;5026212;28;20073;-57
2021/04/08 09:32:29;;;;;;;18.63;18.20;;;;;;;;;;5030432;28;20035;-57
2021/04/08 09:35:05;;;;;;;17.35;16.67;;;;;;;;;;5029678;28;20052;-57
2021/04/08 09:37:48;;;;;;;16.13;15.93;;;;;;;;;;5025665;28;20514;-56
2021/04/08 09:40:21;;;;;;;16.50;16.00;;;;;;;;;;5030518;28;20035;-56
2021/04/08 09:42:51;;;;;;;13.85;13.50;;;;;;;;;;5028043;28;20140;-56
2021/04/08 09:45:18;;;;;;;16.45;16.02;;;;;;;;;;5026695;28;20038;-56
2021/04/08 09:47:44;;;;;;;10.98;10.77;;;;;;;;;;5031904;28;20124;-57
2021/04/08 09:50:31;;;;;;;3.90;3.60;;;;;;;;;;5025748;28;20505;-57
2021/04/08 09:52:57;;;;;;;11.20;10.82;;;;;;;;;;5029294;28;20052;-57
2021/04/08 09:55:33;;;;;;;12.88;12.68;;;;;;;;;;5030853;28;20064;-55
2021/04/08 09:58:03;;;;;;;13.00;12.90;;;;;;;;;;5023475;28;20044;-57
2021/04/08 10:00:29;;;;;;;7.90;7.72;;;;;;;;;;5029050;28;20056;-53
2021/04/08 10:02:56;;;;;;;3.92;3.58;;;;;;;;;;5021933;28;20056;-52
2021/04/08 10:05:22;;;;;;;3.40;3.20;;;;;;;;;;5023316;28;20044;-56
2021/04/08 10:07:48;;;;;;;3.13;3.03;;;;;;;;;;5029010;28;20521;-56
2021/04/08 10:10:18;;;;;;;5.18;3.25;;;;;;;;;;5024301;28;20036;-57
2021/04/08 10:12:44;;;;;;;2.55;2.55;;;;;;;;;;5029349;28;20393;-56
2021/04/08 10:15:14;;;;;;;2.83;2.72;;;;;;;;;;5019266;28;20513;-56
2021/04/08 10:17:41;;;;;;;3.30;3.20;;;;;;;;;;5026652;28;20095;-57
2021/04/08 10:20:08;;;;;;;3.35;3.25;;;;;;;;;;5028928;28;20073;-57
2021/04/08 10:22:41;;;;;;;2.70;2.63;;;;;;;;;;5021527;28;20522;-57
2021/04/08 10:25:08;;;;;;;4.82;4.72;;;;;;;;;;5015423;28;20037;-57
2021/04/08 10:27:34;;;;;;;2.63;2.63;;;;;;;;;;5027880;28;20386;-57
2021/04/08 10:30:10;;;;;;;2.28;2.17;;;;;;;;;;5023976;28;20120;-56
2021/04/08 10:32:42;;;;;;;2.15;2.10;;;;;;;;;;5021479;28;20462;-57
2021/04/08 10:35:18;;;;;;;1.65;1.65;;;;;;;;;;5024297;28;20055;-56
2021/04/08 10:37:44;;;;;;;1.60;1.60;;;;;;;;;;5023021;28;20030;-57
2021/04/08 10:40:11;;;;;;;6.43;5.93;;;;;;;;;;5027525;28;20035;-57
2021/04/08 10:42:37;;;;;;;3.03;2.92;;;;;;;;;;5020217;28;20029;-57
2021/04/08 10:45:09;;;;;;;1.30;1.30;;;;;;;;;;5030831;28;20482;-54
2021/04/08 10:47:36;;;;;;;1.83;1.55;;;;;;;;;;5024485;28;20045;-57
2021/04/08 10:50:04;;;;;;;1.45;1.45;;;;;;;;;;5027371;28;20052;-56
2021/04/08 10:52:35;;;;;;;1.55;1.45;;;;;;;;;;5012659;28;20038;-57
2021/04/08 10:55:04;;;;;;;1.95;1.00;;;;;;;;;;5024236;28;20040;-56
2021/04/08 10:57:31;;;;;;;1.00;1.00;;;;;;;;;;5029800;28;20494;-57
2021/04/08 10:59:58;;;;;;;1.00;1.00;;;;;;;;;;5027391;28;20052;-58
2021/04/08 11:02:24;;;;;;;0.90;0.90;;;;;;;;;;5026764;28;20453;-57
2021/04/08 11:04:51;;;;;;;1.30;1.20;;;;;;;;;;5031142;28;20053;-58
2021/04/08 11:07:18;;;;;;;1.20;1.20;;;;;;;;;;5022861;28;20044;-58
2021/04/08 11:09:46;;;;;;;1.52;1.30;;;;;;;;;;5027943;28;20033;-57
2021/04/08 11:12:16;;;;;;;2.20;1.60;;;;;;;;;;5026789;28;20072;-56
2021/04/08 11:14:50;;;;;;;2.45;1.52;;;;;;;;;;5024253;28;20095;-57
2021/04/08 11:17:19;;;;;;;1.80;1.80;;;;;;;;;;5029359;28;20132;-58
2021/04/08 11:19:46;;;;;;;1.70;1.60;;;;;;;;;;5024545;28;20045;-56
2021/04/08 11:22:13;;;;;;;2.60;2.08;;;;;;;;;;5028217;28;20033;-56
2021/04/08 11:24:40;;;;;;;1.50;1.50;;;;;;;;;;5028849;28;20381;-57
2021/04/08 11:27:07;;;;;;;1.30;1.30;;;;;;;;;;5021716;28;20061;-57
2021/04/08 11:29:37;;;;;;;2.05;1.95;;;;;;;;;;5030522;28;20039;-57
2021/04/08 11:32:04;;;;;;;3.05;3.05;;;;;;;;;;5025883;28;20497;-58
2021/04/08 11:34:40;;;;;;;3.25;3.15;;;;;;;;;;5025645;28;20040;-57
2021/04/08 11:37:06;;;;;;;1.30;1.30;;;;;;;;;;5028148;28;20816;-55
2021/04/08 11:39:32;;;;;;;1.63;1.50;;;;;;;;;;5020884;28;20789;-54
2021/04/08 11:42:15;;;;;;;1.60;1.50;;;;;;;;;;5029238;28;20033;-55
2021/04/08 11:44:41;;;;;;;1.20;1.20;;;;;;;;;;5027438;28;20069;-56
2021/04/08 11:47:15;;;;;;;1.98;1.88;;;;;;;;;;5022775;28;20295;-55
2021/04/08 11:49:42;;;;;;;1.65;1.65;;;;;;;;;;5026468;28;20057;-53
2021/04/08 11:52:09;;;;;;;2.63;2.60;;;;;;;;;;5016661;28;20049;-56
2021/04/08 11:54:35;;;;;;;1.75;1.75;;;;;;;;;;5017250;28;20095;-56
2021/04/08 11:57:05;;;;;;;1.90;1.80;;;;;;;;;;5030561;28;20128;-55
2021/04/08 11:59:35;;;;;;;1.70;1.60;;;;;;;;;;5022423;28;20080;-56
2021/04/08 12:02:02;;;;;;;1.90;1.73;;;;;;;;;;5029560;28;20041;-52
2021/04/08 12:04:28;;;;;;;1.90;1.20;;;;;;;;;;5029405;28;20079;-55
2021/04/08 12:07:07;;;;;;;3.95;3.20;;;;;;;;;;5024528;28;20042;-57
2021/04/08 12:09:34;;;;;;;1.40;1.30;;;;;;;;;;5034048;28;20544;-55
2021/04/08 12:12:00;;;;;;;2.75;1.30;;;;;;;;;;5028049;28;20072;-55
2021/04/08 12:14:27;;;;;;;2.33;1.30;;;;;;;;;;5031991;28;20063;-55
2021/04/08 12:17:06;;;;;;;1.30;1.30;;;;;;;;;;5028290;28;20053;-55
2021/04/08 12:19:34;;;;;;;1.02;1.02;;;;;;;;;;5021835;28;20080;-55
2021/04/08 12:22:01;;;;;;;1.30;1.30;;;;;;;;;;5031690;28;20386;-55
2021/04/08 12:24:27;;;;;;;1.33;1.13;;;;;;;;;;5027009;28;20352;-56
2021/04/08 12:26:54;;;;;;;1.10;1.10;;;;;;;;;;5029431;28;20046;-55
2021/04/08 12:29:21;;;;;;;1.50;1.00;;;;;;;;;;5031902;28;20116;-53
2021/04/08 12:31:49;;;;;;;1.05;1.05;;;;;;;;;;5022462;28;20107;-56
2021/04/08 12:34:17;;;;;;;2.88;2.47;;;;;;;;;;5029202;28;20052;-43
2021/04/08 12:36:44;;;;;;;1.45;1.35;;;;;;;;;;5028547;28;20049;-43
2021/04/08 12:39:11;;;;;;;1.92;1.65;;;;;;;;;;5029042;28;20033;-43
2021/04/08 12:41:37;;;;;;;4.55;1.75;;;;;;;;;;5032687;28;20617;-42
2021/04/08 12:44:04;;;;;;;1.20;1.20;;;;;;;;;;5028797;28;20044;-44
2021/04/08 12:46:31;;;;;;;1.33;1.33;;;;;;;;;;5031468;28;20042;-42
2021/04/08 12:48:57;;;;;;;1.15;1.15;;;;;;;;;;5023491;28;20049;-42
2021/04/08 12:51:24;;;;;;;1.50;1.40;;;;;;;;;;5024976;28;20038;-41
2021/04/08 12:53:50;;;;;;;2.35;1.73;;;;;;;;;;5034096;28;20037;-42
2021/04/08 12:56:17;;;;;;;1.73;1.50;;;;;;;;;;5027096;28;20486;-42
2021/04/08 12:58:43;;;;;;;2.15;1.67;;;;;;;;;;5031322;28;20054;-42
2021/04/08 13:01:10;;;;;;;1.38;1.38;;;;;;;;;;5017487;28;20406;-41
2021/04/08 13:03:36;;;;;;;1.13;1.13;;;;;;;;;;5028541;28;20120;-41
2021/04/08 13:06:03;;;;;;;1.70;1.52;;;;;;;;;;5033751;28;20124;-42
2021/04/08 13:08:29;;;;;;;1.20;1.20;;;;;;;;;;5026214;28;20470;-45
2021/04/08 13:10:55;;;;;;;3.22;1.58;;;;;;;;;;5031869;28;20144;-44
2021/04/08 13:13:21;;;;;;;1.48;1.42;;;;;;;;;;5029802;28;20045;-42
2021/04/08 13:15:47;;;;;;;1.25;1.25;;;;;;;;;;5024934;28;20040;-42
2021/04/08 13:18:14;;;;;;;2.25;1.65;;;;;;;;;;5033383;28;20107;-43
2021/04/08 13:20:41;;;;;;;1.42;1.40;;;;;;;;;;5026902;28;20030;-42
2021/04/08 13:23:07;;;;;;;3.05;1.60;;;;;;;;;;5029776;28;20034;-42
2021/04/08 13:25:34;;;;;;;3.63;1.75;;;;;;;;;;5030885;28;20050;-44
2021/04/08 13:28:00;;;;;;;2.45;1.40;;;;;;;;;;5025590;28;20042;-42
2021/04/08 13:30:27;;;;;;;4.15;3.95;;;;;;;;;;5018181;28;20063;-41
2021/04/08 13:32:54;;;;;;;2.97;2.97;;;;;;;;;;5027507;28;20107;-42
2021/04/08 13:35:22;;;;;;;3.03;2.92;;;;;;;;;;5027501;28;20030;-42
2021/04/08 13:37:49;;;;;;;4.30;4.30;;;;;;;;;;5030923;28;20413;-42
2021/04/08 13:40:17;;;;;;;3.47;3.35;;;;;;;;;;5024075;28;20034;-41
2021/04/08 13:42:43;;;;;;;4.35;4.35;;;;;;;;;;5032370;28;20041;-42
2021/04/08 13:45:10;;;;;;;7.63;7.15;;;;;;;;;;5027989;28;20074;-42
2021/04/08 13:47:37;;;;;;;4.50;4.20;;;;;;;;;;5025701;28;20045;-44
2021/04/08 13:50:04;;;;;;;4.88;4.78;;;;;;;;;;5031808;28;20049;-42
2021/04/08 13:52:30;;;;;;;1.73;1.63;;;;;;;;;;5024370;28;20049;-42
2021/04/08 13:54:57;;;;;;;3.38;2.75;;;;;;;;;;5030893;28;20103;-43
2021/04/08 13:57:24;;;;;;;2.03;1.75;;;;;;;;;;5028257;28;20136;-42
2021/04/08 13:59:51;;;;;;;1.63;1.55;;;;;;;;;;5027045;28;20051;-41
2021/04/08 14:02:19;;;;;;;1.33;1.33;;;;;;;;;;5032890;28;20041;-43
2021/04/08 14:04:45;;;;;;;1.10;1.10;;;;;;;;;;5024592;28;20076;-42
2021/04/08 14:07:12;;;;;;;1.42;0.98;;;;;;;;;;5030035;28;20045;-44
2021/04/08 14:09:38;;;;;;;1.10;1.10;;;;;;;;;;5028240;28;20490;-42
2021/04/08 14:12:05;;;;;;;1.55;1.20;;;;;;;;;;5025140;28;20069;-42
2021/04/08 14:14:32;;;;;;;2.17;1.95;;;;;;;;;;5031610;28;20482;-43
2021/04/08 14:16:58;;;;;;;2.65;2.45;;;;;;;;;;5026373;28;20370;-42
2021/04/08 14:19:25;;;;;;;2.72;1.40;;;;;;;;;;5029148;28;20473;-42
2021/04/08 14:21:52;;;;;;;1.10;1.10;;;;;;;;;;5027835;28;20124;-42
2021/04/08 14:24:21;;;;;;;2.33;1.30;;;;;;;;;;5023736;28;20037;-42
2021/04/08 14:26:48;;;;;;;0.90;0.90;;;;;;;;;;5032536;28;20041;-42
2021/04/08 14:29:15;;;;;;;1.00;1.00;;;;;;;;;;5026726;28;20362;-42
2021/04/08 14:31:42;;;;;;;1.50;1.20;;;;;;;;;;5028434;28;20034;-42